createdAt,value
2018-05-31T00:01:11.504Z,23.50
2018-05-31T00:04:44.004Z,23.50
2018-05-31T00:08:17.274Z,23.40
2018-05-31T00:11:49.758Z,23.40
2018-05-31T00:15:22.273Z,23.40
2018-05-31T00:18:55.539Z,23.40
2018-05-31T00:22:28.175Z,23.40
2018-05-31T00:26:00.666Z,23.30
2018-05-31T00:29:33.220Z,23.30
2018-05-31T00:33:06.498Z,23.30
2018-05-31T00:36:39.004Z,23.20
2018-05-31T00:40:12.389Z,23.20
2018-05-31T00:43:44.901Z,23.10
2018-05-31T00:47:18.156Z,23.10
2018-05-31T00:50:50.681Z,23.10
2018-05-31T00:54:23.938Z,23.10
2018-05-31T00:57:56.499Z,23.10
2018-05-31T01:01:29.060Z,23.00
2018-05-31T01:05:01.557Z,22.90
2018-05-31T01:08:34.063Z,22.80
2018-05-31T01:12:06.780Z,22.70
2018-05-31T01:15:39.281Z,22.70
2018-05-31T01:19:12.550Z,22.60
2018-05-31T01:22:45.030Z,22.60
2018-05-31T01:26:17.544Z,22.60
2018-05-31T01:29:50.829Z,22.50
2018-05-31T01:33:23.319Z,22.50
2018-05-31T01:36:56.618Z,22.50
2018-05-31T01:40:29.133Z,22.50
2018-05-31T01:44:01.644Z,22.60
2018-05-31T01:47:34.151Z,22.50
2018-05-31T01:51:06.708Z,22.50
2018-05-31T01:54:39.244Z,22.50
2018-05-31T01:58:13.440Z,22.40
2018-05-31T02:01:45.946Z,22.40
2018-05-31T02:05:19.235Z,22.40
2018-05-31T02:08:51.796Z,22.40
2018-05-31T02:12:24.304Z,22.30
2018-05-31T02:15:56.835Z,22.30
2018-05-31T02:19:29.350Z,22.20
2018-05-31T02:23:01.869Z,22.10
2018-05-31T02:26:34.388Z,22.00
2018-05-31T02:30:06.881Z,22.00
2018-05-31T02:33:40.253Z,22.00
2018-05-31T02:37:12.764Z,21.90
2018-05-31T02:40:45.298Z,21.90
2018-05-31T02:44:18.613Z,21.90
2018-05-31T02:47:51.169Z,21.90
2018-05-31T02:51:24.500Z,22.00
2018-05-31T02:54:57.003Z,22.00
2018-05-31T02:58:29.632Z,22.00
2018-05-31T03:02:02.143Z,22.10
2018-05-31T03:05:34.768Z,22.10
2018-05-31T03:09:07.276Z,22.20
2018-05-31T03:12:39.805Z,22.20
2018-05-31T03:16:13.101Z,22.20
2018-05-31T03:19:45.602Z,22.20
2018-05-31T03:23:20.745Z,22.20
2018-05-31T03:26:53.254Z,22.30
2018-05-31T03:30:25.760Z,22.40
2018-05-31T03:33:58.253Z,22.40
2018-05-31T03:37:31.542Z,22.40
2018-05-31T03:41:04.049Z,22.40
2018-05-31T03:44:36.597Z,22.40
2018-05-31T03:48:09.105Z,22.40
2018-05-31T03:51:42.372Z,22.40
2018-05-31T03:55:15.249Z,22.40
2018-05-31T03:58:47.752Z,22.40
2018-05-31T04:02:20.254Z,22.40
2018-05-31T04:05:52.752Z,22.50
2018-05-31T04:09:26.039Z,22.50
2018-05-31T04:12:58.590Z,22.50
2018-05-31T04:16:31.882Z,22.60
2018-05-31T04:20:04.380Z,22.60
2018-05-31T04:23:38.343Z,22.60
2018-05-31T04:27:10.865Z,22.70
2018-05-31T04:30:43.623Z,22.80
2018-05-31T04:34:16.210Z,22.80
2018-05-31T04:37:48.718Z,22.80
2018-05-31T04:41:21.220Z,22.90
2018-05-31T04:44:53.720Z,23.00
2018-05-31T04:48:28.101Z,23.20
2018-05-31T04:52:00.604Z,23.20
2018-05-31T04:55:33.117Z,23.20
2018-05-31T04:59:06.381Z,23.30
2018-05-31T05:02:39.112Z,23.30
2018-05-31T05:06:12.380Z,23.30
2018-05-31T05:09:44.885Z,23.30
2018-05-31T05:17:20.677Z,23.30
2018-05-31T05:20:54.190Z,23.40
2018-05-31T05:24:27.447Z,23.40
2018-05-31T05:27:59.974Z,23.40
2018-05-31T05:31:33.293Z,23.30
2018-05-31T05:35:05.830Z,23.30
2018-05-31T05:38:38.380Z,23.30
2018-05-31T05:42:11.259Z,23.30
2018-05-31T05:45:43.871Z,23.40
2018-05-31T05:49:16.401Z,23.40
2018-05-31T05:52:49.685Z,23.60
2018-05-31T05:56:22.296Z,23.50
2018-05-31T05:59:54.732Z,23.70
2018-05-31T06:03:27.233Z,23.80
2018-05-31T06:07:01.559Z,24.00
2018-05-31T06:10:34.845Z,24.10
2018-05-31T06:14:08.213Z,24.10
2018-05-31T06:17:40.793Z,24.30
2018-05-31T06:21:13.284Z,24.50
2018-05-31T06:24:45.813Z,24.70
2018-05-31T06:28:18.359Z,24.90
2018-05-31T06:31:50.868Z,24.90
2018-05-31T06:35:25.983Z,25.00
2018-05-31T06:38:58.502Z,25.10
2018-05-31T06:42:31.078Z,25.10
2018-05-31T06:46:05.530Z,25.10
2018-05-31T06:49:38.794Z,25.10
2018-05-31T06:53:11.322Z,25.10
2018-05-31T06:56:44.580Z,25.20
2018-05-31T07:00:17.959Z,25.10
2018-05-31T07:03:50.542Z,25.30
2018-05-31T07:07:23.031Z,25.40
2018-05-31T07:10:55.557Z,25.50
2018-05-31T07:14:28.033Z,25.70
2018-05-31T07:18:00.519Z,25.90
2018-05-31T07:21:33.010Z,26.00
2018-05-31T07:25:06.255Z,26.10
2018-05-31T07:28:38.757Z,26.10
2018-05-31T07:32:11.299Z,26.10
2018-05-31T07:35:43.795Z,26.10
2018-05-31T07:39:16.284Z,26.20
2018-05-31T07:42:48.785Z,26.30
2018-05-31T07:46:21.266Z,26.40
2018-05-31T07:49:53.783Z,26.60
2018-05-31T07:53:26.277Z,26.70
2018-05-31T07:56:58.758Z,26.80
2018-05-31T08:00:32.016Z,26.90
2018-05-31T08:04:04.878Z,27.00
2018-05-31T08:07:37.375Z,27.00
2018-05-31T08:11:09.866Z,26.90
2018-05-31T08:14:42.364Z,27.00
2018-05-31T08:18:14.882Z,27.00
2018-05-31T08:21:48.207Z,27.30
2018-05-31T08:25:20.692Z,27.30
2018-05-31T08:28:53.245Z,27.40
2018-05-31T08:32:26.520Z,27.50
2018-05-31T08:35:59.000Z,27.50
2018-05-31T08:39:31.544Z,27.60
2018-05-31T08:43:04.105Z,27.60
2018-05-31T08:46:36.602Z,27.70
2018-05-31T08:50:09.121Z,27.80
2018-05-31T08:53:41.618Z,27.90
2018-05-31T08:57:14.222Z,28.10
2018-05-31T09:00:47.464Z,28.30
2018-05-31T09:04:19.945Z,28.30
2018-05-31T09:07:52.490Z,28.50
2018-05-31T09:11:25.757Z,28.80
2018-05-31T09:14:58.253Z,28.70
2018-05-31T09:18:30.793Z,28.90
2018-05-31T09:22:03.299Z,29.00
2018-05-31T09:25:35.800Z,29.00
2018-05-31T09:29:08.314Z,29.00
2018-05-31T09:32:40.804Z,29.00
2018-05-31T09:36:13.289Z,29.00
2018-05-31T09:39:45.779Z,29.10
2018-05-31T09:43:18.280Z,29.20
2018-05-31T09:46:50.786Z,29.30
2018-05-31T09:50:23.301Z,29.30
2018-05-31T09:53:56.551Z,29.40
2018-05-31T09:57:29.057Z,29.40
2018-05-31T10:01:01.557Z,29.30
2018-05-31T10:04:34.052Z,29.30
2018-05-31T10:08:06.555Z,29.40
2018-05-31T10:11:39.056Z,29.40
2018-05-31T10:15:11.548Z,29.50
2018-05-31T10:18:44.034Z,29.60
2018-05-31T10:22:16.523Z,29.50
2018-05-31T10:25:49.027Z,29.50
2018-05-31T10:29:22.364Z,29.50
2018-05-31T10:32:54.864Z,29.50
2018-05-31T10:36:29.550Z,29.60
2018-05-31T10:40:03.416Z,29.70
2018-05-31T10:43:35.946Z,29.70
2018-05-31T10:47:10.719Z,29.80
2018-05-31T10:51:15.633Z,29.80
2018-05-31T10:54:48.641Z,29.80
2018-05-31T10:58:21.177Z,29.70
2018-05-31T11:01:53.781Z,29.70
2018-05-31T11:05:27.070Z,29.90
2018-05-31T11:08:59.899Z,29.90
2018-05-31T11:12:32.623Z,30.00
2018-05-31T11:16:06.940Z,30.10
2018-05-31T11:19:41.601Z,30.20
2018-05-31T11:23:16.127Z,30.20
2018-05-31T11:26:48.633Z,30.30
2018-05-31T11:30:21.604Z,30.40
2018-05-31T11:33:54.110Z,30.50
2018-05-31T11:37:27.169Z,30.50
2018-05-31T11:41:02.358Z,30.80
2018-05-31T11:44:35.059Z,30.70
2018-05-31T11:48:07.532Z,30.90
2018-05-31T11:51:40.020Z,30.70
2018-05-31T11:55:14.186Z,30.50
2018-05-31T11:58:47.828Z,30.30
2018-05-31T12:02:22.095Z,30.20
2018-05-31T12:05:57.138Z,30.20
2018-05-31T12:09:37.308Z,30.00
2018-05-31T12:13:10.355Z,29.90
2018-05-31T12:16:43.857Z,30.00
2018-05-31T12:20:17.639Z,30.00
2018-05-31T12:23:50.133Z,30.00
2018-05-31T12:27:22.907Z,30.10
2018-05-31T12:30:55.512Z,30.10
2018-05-31T12:34:28.008Z,30.30
2018-05-31T12:38:01.460Z,30.40
2018-05-31T12:41:34.032Z,30.40
2018-05-31T12:45:07.604Z,30.50
2018-05-31T12:48:40.185Z,30.50
2018-05-31T12:52:13.450Z,30.60
2018-05-31T12:55:46.057Z,30.60
2018-05-31T12:59:19.317Z,31.00
2018-05-31T13:02:52.142Z,31.00
2018-05-31T13:06:24.624Z,31.10
2018-05-31T13:09:57.318Z,31.30
2018-05-31T13:13:29.960Z,31.50
2018-05-31T13:17:02.690Z,31.60
2018-05-31T13:20:35.306Z,31.60
2018-05-31T13:24:08.077Z,31.80
2018-05-31T13:27:42.000Z,32.20
2018-05-31T13:31:15.279Z,32.40
2018-05-31T13:34:48.915Z,32.40
2018-05-31T13:38:21.404Z,32.60
2018-05-31T13:41:53.989Z,32.80
2018-05-31T13:45:26.510Z,33.10
2018-05-31T13:48:59.084Z,33.30
2018-05-31T13:52:31.594Z,33.40
2018-05-31T13:56:05.000Z,33.30
2018-05-31T13:59:37.492Z,33.40
2018-05-31T14:03:10.344Z,33.50
2018-05-31T14:06:43.015Z,33.60
2018-05-31T14:10:15.598Z,33.70
2018-05-31T14:13:48.284Z,33.60
2018-05-31T14:17:20.825Z,33.30
2018-05-31T14:20:53.841Z,33.00
2018-05-31T14:24:26.353Z,32.60
2018-05-31T14:27:58.848Z,32.60
2018-05-31T14:31:32.114Z,33.40
2018-05-31T14:35:04.590Z,33.40
2018-05-31T14:38:37.082Z,33.90
2018-05-31T14:42:09.588Z,34.30
2018-05-31T14:45:42.062Z,34.60
2018-05-31T14:49:14.542Z,34.50
2018-05-31T14:52:47.024Z,34.20
2018-05-31T14:56:19.512Z,34.10
2018-05-31T14:59:52.140Z,33.90
2018-05-31T15:03:25.403Z,33.70
2018-05-31T15:06:57.934Z,33.70
2018-05-31T15:10:31.265Z,33.90
2018-05-31T15:14:03.790Z,33.90
2018-05-31T15:17:36.292Z,34.20
2018-05-31T15:21:08.776Z,34.40
2018-05-31T15:24:41.260Z,34.30
2018-05-31T15:28:13.871Z,33.90
2018-05-31T15:31:46.355Z,33.30
2018-05-31T15:35:18.842Z,32.70
2018-05-31T15:38:51.323Z,32.10
2018-05-31T15:42:24.716Z,31.70
2018-05-31T15:45:57.232Z,31.50
2018-05-31T15:49:29.729Z,31.50
2018-05-31T15:53:02.258Z,31.50
2018-05-31T15:56:34.811Z,31.40
2018-05-31T16:00:07.309Z,31.40
2018-05-31T16:03:40.588Z,31.00
2018-05-31T16:07:13.088Z,31.00
2018-05-31T16:10:46.362Z,30.50
2018-05-31T16:14:18.855Z,30.50
2018-05-31T16:17:51.349Z,30.20
2018-05-31T16:21:24.599Z,29.90
2018-05-31T16:24:57.103Z,29.90
2018-05-31T16:28:29.609Z,29.80
2018-05-31T16:32:02.080Z,29.80
2018-05-31T16:35:34.572Z,29.80
2018-05-31T16:39:07.059Z,29.70
2018-05-31T16:42:40.360Z,29.60
2018-05-31T16:46:13.627Z,29.30
2018-05-31T16:49:46.122Z,29.30
2018-05-31T16:53:18.597Z,29.30
2018-05-31T16:56:51.097Z,29.20
2018-05-31T17:00:23.586Z,29.10
2018-05-31T17:03:56.108Z,29.00
2018-05-31T17:07:28.597Z,28.80
2018-05-31T17:11:01.121Z,28.70
2018-05-31T17:14:33.636Z,28.50
2018-05-31T17:18:06.134Z,28.40
2018-05-31T17:21:38.618Z,28.30
2018-05-31T17:25:11.279Z,28.30
2018-05-31T17:28:43.763Z,28.10
2018-05-31T17:32:16.244Z,27.80
2018-05-31T17:35:48.737Z,27.50
2018-05-31T17:39:21.231Z,27.30
2018-05-31T17:42:53.746Z,27.10
2018-05-31T17:46:26.234Z,27.00
2018-05-31T17:49:58.711Z,27.00
2018-05-31T17:53:31.203Z,26.70
2018-05-31T17:57:03.724Z,26.40
2018-05-31T18:00:36.215Z,26.10
2018-05-31T18:04:08.706Z,25.90
2018-05-31T18:07:41.223Z,25.80
2018-05-31T18:11:13.700Z,25.60
2018-05-31T18:14:46.191Z,25.50
2018-05-31T18:18:18.681Z,25.40
2018-05-31T18:21:51.172Z,25.20
2018-05-31T18:25:23.664Z,25.10
2018-05-31T18:28:56.200Z,25.10
2018-05-31T18:32:28.684Z,25.00
2018-05-31T18:36:01.151Z,25.00
2018-05-31T18:39:33.644Z,25.10
2018-05-31T18:43:06.139Z,25.10
2018-05-31T18:46:38.672Z,25.20
2018-05-31T18:50:11.166Z,25.30
2018-05-31T18:53:44.061Z,25.30
2018-05-31T18:57:16.569Z,25.40
2018-05-31T19:00:49.120Z,25.40
2018-05-31T19:04:21.596Z,25.50
2018-05-31T19:07:54.098Z,25.40
2018-05-31T19:11:26.961Z,25.50
2018-05-31T19:15:00.208Z,25.60
2018-05-31T19:18:38.408Z,25.60
2018-05-31T19:22:10.920Z,25.60
2018-05-31T19:25:43.391Z,25.60
2018-05-31T19:29:15.887Z,25.60
2018-05-31T19:32:48.379Z,25.60
2018-05-31T19:36:26.468Z,25.60
2018-05-31T19:39:58.955Z,25.60
2018-05-31T19:43:37.160Z,25.60
2018-05-31T19:47:09.672Z,25.50
2018-05-31T19:50:42.149Z,25.50
2018-05-31T19:54:14.653Z,25.40
2018-05-31T19:57:53.680Z,25.30
2018-05-31T20:01:32.636Z,25.20
2018-05-31T20:05:05.113Z,25.20
2018-05-31T20:08:38.482Z,25.10
2018-05-31T20:12:10.967Z,25.20
2018-05-31T20:15:43.497Z,25.10
2018-05-31T20:19:15.985Z,25.10
2018-05-31T20:22:48.480Z,25.00
2018-05-31T20:26:20.983Z,24.90
2018-05-31T20:29:53.457Z,24.80
2018-05-31T20:33:25.935Z,24.70
2018-05-31T20:36:58.444Z,24.70
2018-05-31T20:40:30.918Z,24.60
2018-05-31T20:44:03.399Z,24.60
2018-05-31T20:47:35.917Z,24.60
2018-05-31T20:51:09.269Z,24.60
2018-05-31T20:54:41.893Z,24.60
2018-05-31T20:58:15.172Z,24.50
2018-05-31T21:01:47.666Z,24.50
2018-05-31T21:05:20.931Z,24.40
2018-05-31T21:08:53.416Z,24.40
2018-05-31T21:12:25.904Z,24.40
2018-05-31T21:15:58.385Z,24.30
2018-05-31T21:19:30.865Z,24.30
2018-05-31T21:23:03.343Z,24.20
2018-05-31T21:26:35.825Z,24.20
2018-05-31T21:30:08.308Z,24.10
2018-05-31T21:33:40.787Z,24.10
2018-05-31T21:37:13.300Z,24.00
2018-05-31T21:40:45.788Z,23.90
2018-05-31T21:44:18.282Z,23.90
2018-05-31T21:47:51.527Z,23.70
2018-05-31T21:51:24.008Z,23.70
2018-05-31T21:54:56.505Z,23.70
2018-05-31T21:58:28.976Z,23.60
2018-05-31T22:02:01.460Z,23.50
2018-05-31T22:05:34.006Z,23.50
2018-05-31T22:09:07.227Z,23.40
2018-05-31T22:12:39.714Z,23.40
2018-05-31T22:16:12.192Z,23.40
2018-05-31T22:19:44.685Z,23.40
2018-05-31T22:23:17.157Z,23.40
2018-05-31T22:26:49.636Z,23.30
2018-05-31T22:30:22.117Z,23.30
2018-05-31T22:33:54.609Z,23.40
2018-05-31T22:37:27.092Z,23.40
2018-05-31T22:40:59.572Z,23.40
2018-05-31T22:44:32.045Z,23.40
2018-05-31T22:48:04.521Z,23.40
2018-05-31T22:51:37.011Z,23.40
2018-05-31T22:55:09.486Z,23.40
2018-05-31T22:58:41.964Z,23.30
2018-05-31T23:02:14.457Z,23.20
2018-05-31T23:05:46.939Z,23.10
2018-05-31T23:09:19.428Z,23.00
2018-05-31T23:12:51.933Z,22.90
2018-05-31T23:16:24.420Z,22.80
2018-05-31T23:19:56.900Z,22.70
2018-05-31T23:23:29.389Z,22.60
2018-05-31T23:27:01.872Z,22.50
2018-05-31T23:30:34.347Z,22.40
2018-05-31T23:34:06.840Z,22.30
2018-05-31T23:37:40.103Z,22.00
2018-05-31T23:41:12.677Z,22.00
2018-05-31T23:44:45.147Z,21.90
2018-05-31T23:48:17.638Z,21.80
2018-05-31T23:51:50.124Z,21.80
2018-05-31T23:55:22.601Z,21.80
2018-05-31T23:58:55.089Z,21.80
